Time;durP1;ratioP1;P1;durP2;ratioP2;P2;SDS_P1;SDS_P2;PMS_P1;PMS_P2;Temp;Humidity;BMP_temperature;BMP_pressure;BME280_temperature;BME280_humidity;BME280_pressure;Samples;Min_cycle;Max_cycle;Signal;HPM_P1;HPM_P2
2022/04/10 00:02:06;;;;;;;24.08;17.38;;;;;;;11.25;45.47;94294.91;5104388;28;20418;-69
2022/04/10 00:04:32;;;;;;;21.35;12.60;;;;;;;11.28;45.63;94296.34;5105507;28;20482;-70
2022/04/10 00:06:57;;;;;;;22.00;10.65;;;;;;;11.17;46.18;94290.56;5104718;28;20031;-70
2022/04/10 00:09:22;;;;;;;15.25;9.38;;;;;;;11.17;46.56;94300.50;5105042;28;20081;-69
2022/04/10 00:11:48;;;;;;;15.68;10.13;;;;;;;11.14;46.51;94301.72;5107277;28;20049;-71
2022/04/10 00:14:13;;;;;;;22.27;9.55;;;;;;;11.06;46.82;94286.66;5109253;28;20028;-70
2022/04/10 00:16:39;;;;;;;19.67;10.30;;;;;;;10.99;47.87;94280.50;5109880;28;20023;-70
2022/04/10 00:19:05;;;;;;;16.92;10.43;;;;;;;10.95;47.10;94272.03;5108491;28;20073;-71
2022/04/10 00:21:31;;;;;;;17.25;10.13;;;;;;;10.96;46.68;94281.72;5109657;28;20020;-70
2022/04/10 00:23:57;;;;;;;21.30;13.27;;;;;;;11.05;46.52;94286.88;5108609;28;20039;-71
2022/04/10 00:26:23;;;;;;;21.83;13.38;;;;;;;10.94;47.79;94275.75;5108972;28;20047;-70
2022/04/10 00:28:48;;;;;;;23.67;14.75;;;;;;;10.94;46.76;94288.34;5108727;28;20027;-71
2022/04/10 00:31:14;;;;;;;19.92;13.40;;;;;;;10.90;46.81;94284.44;5108811;28;20023;-68
2022/04/10 00:33:39;;;;;;;20.88;12.25;;;;;;;10.84;47.72;94276.19;5109661;28;20024;-70
2022/04/10 00:36:05;;;;;;;20.45;11.88;;;;;;;10.78;47.78;94277.00;5108637;28;20374;-70
2022/04/10 00:38:30;;;;;;;22.25;12.82;;;;;;;10.80;47.86;94269.56;5107665;28;20102;-70
2022/04/10 00:40:56;;;;;;;22.60;15.13;;;;;;;10.85;47.74;94277.81;5108127;28;20072;-71
2022/04/10 00:43:21;;;;;;;26.05;14.32;;;;;;;10.86;47.92;94278.66;5108998;28;20023;-70
2022/04/10 00:45:46;;;;;;;22.10;12.93;;;;;;;10.79;47.93;94283.19;5108357;28;20031;-71
2022/04/10 00:48:12;;;;;;;21.15;12.95;;;;;;;10.85;48.31;94285.06;5108482;28;20413;-69
2022/04/10 00:51:39;;;;;;;20.35;11.45;;;;;;;10.90;47.74;94284.44;5108688;28;20024;-70
2022/04/10 00:53:23;;;;;;;17.98;11.15;;;;;;;10.89;48.12;94278.22;5106784;28;20032;-71
2022/04/10 00:55:49;;;;;;;19.65;11.00;;;;;;;10.82;48.64;94259.47;5108967;28;20055;-70
2022/04/10 00:58:14;;;;;;;19.67;11.35;;;;;;;10.70;49.29;94245.88;5089544;28;20406;-70
2022/04/10 01:00:39;;;;;;;14.50;9.25;;;;;;;10.67;49.09;94234.72;5090628;28;20016;-70
2022/04/10 01:03:05;;;;;;;14.10;9.05;;;;;;;10.69;49.11;94236.16;5108109;28;20451;-70
2022/04/10 01:05:30;;;;;;;16.17;9.57;;;;;;;10.70;48.94;94236.97;5108277;28;20023;-70
2022/04/10 01:07:56;;;;;;;14.02;7.07;;;;;;;10.83;48.62;94238.84;5106960;28;20581;-70
2022/04/10 01:10:21;;;;;;;12.05;7.03;;;;;;;10.65;50.25;94237.59;5107874;28;20487;-71
2022/04/10 01:12:47;;;;;;;10.98;6.55;;;;;;;10.58;51.07;94220.69;5108832;28;20077;-70
2022/04/10 01:15:12;;;;;;;14.57;5.90;;;;;;;10.55;49.49;94208.53;5106521;28;20053;-70
2022/04/10 01:17:37;;;;;;;11.65;5.85;;;;;;;10.67;49.70;94224.00;5108510;28;20157;-70
2022/04/10 01:20:03;;;;;;;7.93;4.88;;;;;;;10.63;49.05;94232.47;5106190;28;20034;-70
2022/04/10 01:22:35;;;;;;;10.13;5.20;;;;;;;10.45;49.79;94235.72;5107699;28;20103;-70
2022/04/10 01:25:05;;;;;;;10.23;5.00;;;;;;;10.33;49.67;94226.66;5107697;28;20043;-70
2022/04/10 01:27:35;;;;;;;8.70;5.30;;;;;;;10.35;48.76;94224.59;5107878;28;20031;-70
2022/04/10 01:30:01;;;;;;;9.20;5.50;;;;;;;10.28;49.60;94224.59;5108355;28;20027;-70
2022/04/10 01:32:26;;;;;;;11.05;5.25;;;;;;;10.23;49.71;94227.88;5106964;28;20123;-70
2022/04/10 01:34:52;;;;;;;8.27;4.13;;;;;;;10.26;49.69;94235.50;5108412;28;20035;-70
2022/04/10 01:37:17;;;;;;;9.25;4.53;;;;;;;10.24;49.58;94244.75;5088777;28;20020;-71
2022/04/10 01:39:42;;;;;;;7.70;4.38;;;;;;;10.22;49.67;94242.28;5106356;28;20031;-69
2022/04/10 01:42:08;;;;;;;7.15;4.38;;;;;;;10.14;50.58;94235.28;5107475;28;20038;-70
2022/04/10 01:44:41;;;;;;;8.90;4.55;;;;;;;10.25;49.97;94241.88;5107560;28;20363;-70
2022/04/10 01:47:06;;;;;;;8.00;4.50;;;;;;;10.22;49.94;94247.66;5107803;27;20054;-69
2022/04/10 01:49:32;;;;;;;9.77;4.32;;;;;;;10.18;50.15;94241.06;5106945;28;20789;-70
2022/04/10 01:51:57;;;;;;;9.80;4.43;;;;;;;10.12;50.65;94228.47;5107946;28;20077;-70
2022/04/10 01:54:22;;;;;;;8.60;4.47;;;;;;;10.09;50.90;94232.38;5106731;28;20056;-70
2022/04/10 01:56:48;;;;;;;9.73;3.90;;;;;;;10.18;51.03;94230.34;5107751;28;20077;-70
2022/04/10 01:59:13;;;;;;;10.63;4.30;;;;;;;10.11;51.21;94219.59;5106903;28;20019;-70
2022/04/10 02:01:39;;;;;;;10.50;4.80;;;;;;;10.09;51.58;94227.00;5107378;28;20024;-71
2022/04/10 02:04:04;;;;;;;11.18;5.03;;;;;;;10.20;50.77;94222.94;5107231;28;20362;-70
2022/04/10 02:06:31;;;;;;;7.63;4.60;;;;;;;10.19;51.93;94220.47;5107038;28;20422;-70
2022/04/10 02:08:56;;;;;;;8.43;4.05;;;;;;;10.14;52.22;94221.88;5088957;28;20027;-70
2022/04/10 02:11:21;;;;;;;8.82;4.07;;;;;;;10.24;51.64;94229.53;5106503;28;20031;-70
2022/04/10 02:13:47;;;;;;;8.38;4.40;;;;;;;10.22;52.56;94225.41;5107344;28;20024;-70
2022/04/10 02:16:14;;;;;;;7.03;4.35;;;;;;;10.21;52.51;94221.91;5106264;28;20106;-69
2022/04/10 02:18:39;;;;;;;9.40;3.50;;;;;;;10.26;52.45;94226.63;5107159;28;20168;-69
2022/04/10 02:21:05;;;;;;;8.23;3.85;;;;;;;10.32;51.50;94230.34;5106944;28;20639;-70
2022/04/10 02:23:30;;;;;;;6.68;4.10;;;;;;;10.36;51.46;94215.50;5106804;28;20076;-70
2022/04/10 02:25:56;;;;;;;8.40;3.60;;;;;;;10.36;51.47;94220.88;5106648;28;20032;-70
2022/04/10 02:28:21;;;;;;;6.07;3.53;;;;;;;10.39;51.44;94223.13;5106736;28;20060;-70
2022/04/10 02:30:47;;;;;;;8.68;3.88;;;;;;;10.29;51.67;94226.22;5107248;28;20117;-70
2022/04/10 02:33:12;;;;;;;8.10;3.30;;;;;;;10.35;51.34;94220.03;5105900;28;20410;-69
2022/04/10 02:35:37;;;;;;;10.65;3.90;;;;;;;10.38;50.70;94221.50;5105906;28;20020;-70
2022/04/10 02:38:03;;;;;;;9.02;4.05;;;;;;;10.36;51.47;94215.50;5105999;28;20405;-70
2022/04/10 02:40:28;;;;;;;9.45;3.80;;;;;;;10.36;50.85;94218.19;5106692;28;20023;-69
2022/04/10 02:42:54;;;;;;;6.85;3.65;;;;;;;10.23;51.10;94219.84;5105833;28;20487;-70
2022/04/10 02:45:19;;;;;;;7.32;3.55;;;;;;;10.25;51.21;94225.81;5106487;28;20031;-70
2022/04/10 02:47:45;;;;;;;7.85;3.70;;;;;;;10.22;51.87;94226.22;5106366;28;20410;-70
2022/04/10 02:50:10;;;;;;;6.63;3.75;;;;;;;10.13;52.52;94244.34;5105931;28;20035;-70
2022/04/10 02:52:36;;;;;;;8.23;3.92;;;;;;;10.21;51.36;94240.66;5106942;28;20521;-70
2022/04/10 02:55:01;;;;;;;10.00;4.05;;;;;;;10.16;51.41;94247.66;5105407;28;20505;-70
2022/04/10 02:57:26;;;;;;;6.90;3.55;;;;;;;10.21;51.14;94254.03;5106348;28;20486;-70
2022/04/10 02:59:52;;;;;;;6.68;4.07;;;;;;;10.18;50.88;94257.13;5105414;28;20020;-69
2022/04/10 03:02:17;;;;;;;9.82;4.30;;;;;;;10.13;51.87;94262.28;5106487;28;20485;-69
2022/04/10 03:04:43;;;;;;;8.10;3.55;;;;;;;10.20;51.57;94270.31;5106478;28;20463;-70
2022/04/10 03:07:08;;;;;;;8.13;3.60;;;;;;;10.17;51.39;94276.94;5105499;28;20481;-70
2022/04/10 03:09:34;;;;;;;8.40;3.70;;;;;;;10.19;52.06;94287.44;5106325;28;20059;-70
2022/04/10 03:11:59;;;;;;;7.75;3.63;;;;;;;10.09;51.89;94264.53;5104998;28;20375;-70
2022/04/10 03:14:24;;;;;;;6.88;3.60;;;;;;;10.12;51.95;94266.00;5106513;28;20020;-69
2022/04/10 03:16:50;;;;;;;7.15;4.28;;;;;;;10.04;53.17;94268.84;5105080;28;20034;-69
2022/04/10 03:19:16;;;;;;;5.85;3.90;;;;;;;9.97;52.83;94266.97;5105999;28;20468;-69
2022/04/10 03:21:41;;;;;;;8.32;3.78;;;;;;;9.98;53.24;94268.63;5105645;28;20069;-70
2022/04/10 03:24:07;;;;;;;9.57;3.47;;;;;;;10.06;53.39;94264.13;5105474;28;20464;-70
2022/04/10 03:26:32;;;;;;;9.40;4.82;;;;;;;10.07;54.76;94268.44;5105733;28;20478;-70
2022/04/10 03:28:58;;;;;;;12.95;5.30;;;;;;;10.10;55.73;94262.69;5104967;28;20032;-70
2022/04/10 03:31:23;;;;;;;9.38;6.45;;;;;;;10.11;56.81;94267.00;5105913;28;20410;-69
2022/04/10 03:33:49;;;;;;;9.45;6.60;;;;;;;10.12;58.11;94263.31;5105155;28;20020;-69
2022/04/10 03:36:15;;;;;;;11.55;7.75;;;;;;;10.12;58.76;94257.94;5105844;28;20024;-69
2022/04/10 03:38:40;;;;;;;10.73;8.10;;;;;;;10.09;60.03;94256.47;5104931;28;20027;-69
2022/04/10 03:41:06;;;;;;;11.88;9.15;;;;;;;10.07;60.25;94255.88;5105435;28;20316;-70
2022/04/10 03:43:32;;;;;;;10.98;9.40;;;;;;;9.98;60.98;94257.91;5105179;28;20414;-70
2022/04/10 03:46:01;;;;;;;14.90;10.15;;;;;;;9.89;61.79;94264.47;5105031;28;20198;-70
2022/04/10 03:48:27;;;;;;;14.77;9.98;;;;;;;9.89;62.36;94261.81;5105878;28;20027;-70
2022/04/10 03:50:52;;;;;;;14.23;10.15;;;;;;;9.93;62.10;94260.34;5105146;28;20497;-69
2022/04/10 03:53:17;;;;;;;11.85;9.52;;;;;;;9.93;61.89;94270.28;5105654;28;20482;-70
2022/04/10 03:55:44;;;;;;;13.15;10.10;;;;;;;9.89;62.46;94277.88;5104613;28;20085;-70
2022/04/10 03:58:09;;;;;;;12.60;10.32;;;;;;;9.91;62.02;94283.88;5105251;28;20451;-69
2022/04/10 04:00:35;;;;;;;12.50;9.75;;;;;;;9.87;62.19;94274.56;5105036;28;20494;-70
2022/04/10 04:03:00;;;;;;;12.68;10.85;;;;;;;9.91;62.20;94289.22;5105495;28;20363;-70
2022/04/10 04:05:26;;;;;;;16.20;11.80;;;;;;;9.83;62.43;94284.88;5104028;28;20494;-70
2022/04/10 04:07:51;;;;;;;14.75;11.20;;;;;;;9.76;62.61;94290.19;5104811;28;20097;-69
2022/04/10 04:10:16;;;;;;;15.52;11.63;;;;;;;9.70;62.43;94288.31;5105631;28;20024;-69
2022/04/10 04:12:42;;;;;;;16.75;12.05;;;;;;;9.64;62.99;94299.84;5104457;28;20031;-72
2022/04/10 04:15:08;;;;;;;18.60;12.52;;;;;;;9.51;63.25;94296.03;5105610;28;20020;-71
2022/04/10 04:17:33;;;;;;;16.85;12.63;;;;;;;9.47;63.45;94302.84;5104707;28;20034;-70
2022/04/10 04:19:59;;;;;;;15.70;11.95;;;;;;;9.38;63.48;94296.81;5105302;28;20027;-70
2022/04/10 04:22:24;;;;;;;19.20;12.75;;;;;;;9.21;64.17;94307.00;5104722;28;20387;-70
2022/04/10 04:24:49;;;;;;;20.15;13.02;;;;;;;9.15;64.18;94310.47;5105094;28;20106;-71
2022/04/10 04:27:15;;;;;;;20.23;13.02;;;;;;;9.09;64.66;94316.59;5104999;28;20094;-70
2022/04/10 04:29:40;;;;;;;19.77;14.05;;;;;;;8.97;64.65;94308.28;5103243;28;20027;-71
2022/04/10 04:32:06;;;;;;;16.75;13.05;;;;;;;8.86;64.78;94313.16;5105353;28;20048;-70
2022/04/10 04:34:31;;;;;;;17.40;13.00;;;;;;;8.75;64.79;94324.38;5104364;28;20016;-70
2022/04/10 04:36:57;;;;;;;19.40;13.00;;;;;;;8.65;65.45;94328.22;5105335;28;20035;-70
2022/04/10 04:39:22;;;;;;;16.73;13.23;;;;;;;8.57;65.63;94344.38;5104179;28;20417;-70
2022/04/10 04:41:48;;;;;;;21.65;14.75;;;;;;;8.45;66.10;94330.66;5104984;28;20654;-71
2022/04/10 04:44:13;;;;;;;18.35;13.93;;;;;;;8.41;66.10;94346.22;5103256;28;20030;-70
2022/04/10 04:46:39;;;;;;;98.63;92.60;;;;;;;8.37;66.11;94354.81;5104673;28;20463;-70
2022/04/10 04:49:04;;;;;;;24.08;14.35;;;;;;;8.40;65.84;94349.09;5105570;28;20042;-70
2022/04/10 04:51:34;;;;;;;22.23;14.27;;;;;;;8.26;65.78;94369.50;5102954;28;20466;-70
2022/04/10 04:54:00;;;;;;;19.63;13.95;;;;;;;8.23;66.10;94373.41;5105051;28;20024;-70
2022/04/10 04:56:25;;;;;;;21.30;16.02;;;;;;;8.14;66.42;94367.31;5104006;28;20035;-70
2022/04/10 04:58:50;;;;;;;22.42;13.98;;;;;;;8.11;66.51;94377.56;5106982;28;20543;-70
2022/04/10 05:01:16;;;;;;;19.60;13.60;;;;;;;8.07;66.37;94378.94;5108016;28;20016;-70
2022/04/10 05:03:41;;;;;;;20.25;14.25;;;;;;;8.03;66.84;94379.31;5108364;28;20031;-70
2022/04/10 05:06:07;;;;;;;19.98;13.63;;;;;;;8.07;66.61;94381.63;5108626;28;20031;-70
2022/04/10 05:08:32;;;;;;;21.70;14.27;;;;;;;7.99;66.78;94394.06;5106417;28;20032;-70
2022/04/10 05:10:59;;;;;;;21.73;13.65;;;;;;;8.00;66.48;94389.53;5109057;28;20024;-71
2022/04/10 05:13:24;;;;;;;18.10;13.48;;;;;;;7.96;66.75;94398.97;5107435;28;20020;-71
2022/04/10 05:15:50;;;;;;;18.02;14.50;;;;;;;8.06;66.22;94393.31;5108555;28;20035;-70
2022/04/10 05:18:17;;;;;;;19.88;13.45;;;;;;;8.04;65.99;94405.00;5107954;27;20038;-71
2022/04/10 05:20:43;;;;;;;20.65;13.82;;;;;;;8.00;66.64;94400.22;5107984;27;20035;-70
2022/04/10 05:23:09;;;;;;;17.50;13.23;;;;;;;8.05;65.90;94411.19;5108320;28;20028;-69
2022/04/10 05:25:36;;;;;;;19.80;15.95;;;;;;;8.03;66.08;94413.19;5107505;28;20089;-70
2022/04/10 05:28:01;;;;;;;17.63;12.75;;;;;;;8.07;65.58;94401.16;5108354;27;20043;-71
2022/04/10 05:30:27;;;;;;;18.13;12.35;;;;;;;8.04;65.90;94409.53;5105690;28;20034;-69
2022/04/10 05:32:52;;;;;;;20.10;13.43;;;;;;;8.07;64.99;94419.00;5108346;28;20044;-69
2022/04/10 05:35:19;;;;;;;15.90;11.90;;;;;;;8.07;65.11;94411.84;5107639;28;20031;-70
2022/04/10 05:37:44;;;;;;;16.65;11.85;;;;;;;8.10;64.76;94408.78;5107819;28;20035;-70
2022/04/10 05:40:10;;;;;;;19.58;12.05;;;;;;;8.13;64.53;94408.41;5107619;28;20019;-70
2022/04/10 05:42:43;;;;;;;15.85;10.88;;;;;;;8.11;64.58;94414.97;5107531;28;20023;-71
2022/04/10 05:45:09;;;;;;;15.63;11.20;;;;;;;8.06;64.34;94420.03;5106748;28;20555;-70
2022/04/10 05:47:36;;;;;;;16.58;11.68;;;;;;;7.98;64.63;94423.63;5106990;28;20114;-71
2022/04/10 05:50:02;;;;;;;17.63;11.57;;;;;;;7.90;64.70;94436.06;5108085;28;20461;-70
2022/04/10 05:52:28;;;;;;;14.75;11.40;;;;;;;7.87;65.14;94419.56;5106946;28;20019;-72
2022/04/10 05:54:57;;;;;;;12.77;10.02;;;;;;;7.93;64.43;94436.72;5107728;28;20020;-70
2022/04/10 05:57:23;;;;;;;12.25;9.60;;;;;;;7.87;64.38;94424.91;5107183;28;20035;-70
2022/04/10 05:59:48;;;;;;;15.05;9.38;;;;;;;7.82;64.59;94435.34;5107147;28;20031;-69
2022/04/10 06:02:14;;;;;;;21.52;19.63;;;;;;;7.82;64.06;94432.66;5107653;28;20031;-70
2022/04/10 06:04:39;;;;;;;12.90;9.50;;;;;;;7.75;64.35;94452.09;5106902;28;20034;-70
2022/04/10 06:07:04;;;;;;;13.63;8.85;;;;;;;7.72;64.46;94448.94;5107824;28;20482;-69
2022/04/10 06:09:30;;;;;;;11.57;8.65;;;;;;;7.69;64.14;94454.66;5106344;28;20448;-71
2022/04/10 06:11:55;;;;;;;12.00;8.73;;;;;;;7.69;64.50;94454.66;5107207;28;20088;-69
2022/04/10 06:14:22;;;;;;;14.55;8.73;;;;;;;7.65;64.23;94464.88;5106616;28;20027;-70
2022/04/10 06:16:48;;;;;;;12.75;8.45;;;;;;;7.59;64.08;94470.94;5106843;28;20031;-70
2022/04/10 06:19:16;;;;;;;10.10;7.10;;;;;;;7.54;64.05;94458.94;5106858;28;20496;-70
2022/04/10 06:21:41;;;;;;;11.90;9.20;;;;;;;7.55;64.36;94467.78;5106813;28;20023;-70
2022/04/10 06:24:07;;;;;;;11.95;7.45;;;;;;;7.62;63.97;94486.59;5107289;28;20494;-70
2022/04/10 06:26:32;;;;;;;12.18;7.93;;;;;;;7.52;64.64;94471.66;5106232;28;20031;-71
2022/04/10 06:28:58;;;;;;;9.93;7.55;;;;;;;7.58;64.39;94477.28;5107117;28;20517;-71
2022/04/10 06:31:23;;;;;;;10.60;7.72;;;;;;;7.54;64.87;94469.63;5105850;28;20502;-70
2022/04/10 06:33:50;;;;;;;10.88;8.30;;;;;;;7.53;65.10;94473.31;5105428;28;20039;-71
2022/04/10 06:36:16;;;;;;;25.77;23.85;;;;;;;7.56;64.49;94468.63;5106404;28;20406;-70
2022/04/10 06:38:41;;;;;;;10.35;7.47;;;;;;;7.45;64.98;94457.38;5106383;28;20666;-70
2022/04/10 06:41:07;;;;;;;11.18;6.60;;;;;;;7.37;65.24;94468.13;5105620;28;20100;-70
2022/04/10 06:43:32;;;;;;;8.40;6.20;;;;;;;7.37;65.55;94474.28;5106153;28;20464;-70
2022/04/10 06:45:58;;;;;;;8.95;6.85;;;;;;;7.38;65.28;94465.28;5106531;28;20035;-71
2022/04/10 06:48:23;;;;;;;9.07;6.20;;;;;;;7.40;64.95;94465.94;5104674;28;20024;-69
2022/04/10 06:50:49;;;;;;;8.45;6.72;;;;;;;7.41;64.85;94469.44;5106562;28;20578;-71
2022/04/10 06:53:14;;;;;;;8.73;6.90;;;;;;;7.45;64.93;94470.72;5104615;28;20482;-70
2022/04/10 06:55:40;;;;;;;8.27;5.97;;;;;;;7.47;65.11;94479.38;5106481;28;20076;-70
2022/04/10 06:58:05;;;;;;;8.25;5.93;;;;;;;7.51;64.66;94472.66;5104550;28;20511;-70
2022/04/10 07:00:32;;;;;;;6.95;4.72;;;;;;;7.49;64.26;94468.53;5105944;28;20482;-70
2022/04/10 07:02:57;;;;;;;7.50;5.90;;;;;;;7.47;64.64;94460.69;5106165;28;20406;-71
2022/04/10 07:05:22;;;;;;;6.93;5.30;;;;;;;7.57;64.14;94456.94;5105566;28;20019;-70
2022/04/10 07:07:48;;;;;;;5.65;4.28;;;;;;;7.64;63.55;94455.22;5106355;28;20434;-70
2022/04/10 07:10:14;;;;;;;5.90;4.88;;;;;;;7.67;62.78;94462.84;5105113;28;20502;-70
2022/04/10 07:12:39;;;;;;;4.82;4.05;;;;;;;7.69;62.99;94465.34;5106155;28;20038;-70
2022/04/10 07:15:05;;;;;;;5.05;4.25;;;;;;;7.69;62.44;94466.16;5105269;28;20422;-71
2022/04/10 07:17:30;;;;;;;7.05;4.43;;;;;;;7.62;62.85;94459.91;5105743;28;20031;-69
2022/04/10 07:19:56;;;;;;;4.43;4.03;;;;;;;7.48;62.78;94462.34;5105975;28;20031;-70
2022/04/10 07:25:05;;;;;;;7.05;3.80;;;;;;;7.21;63.32;94445.94;5106127;28;20035;-70
2022/04/10 07:27:31;;;;;;;3.70;2.90;;;;;;;7.17;63.28;94442.78;5105312;28;20028;-70
2022/04/10 07:29:56;;;;;;;4.15;2.67;;;;;;;7.11;63.55;94446.19;5104266;28;20061;-71
2022/04/10 07:32:21;;;;;;;3.22;2.83;;;;;;;7.05;63.64;94454.91;5104775;28;20047;-71
2022/04/10 07:34:47;;;;;;;3.42;2.85;;;;;;;7.03;64.05;94462.25;5105595;28;20038;-69
2022/04/10 07:37:12;;;;;;;3.55;2.83;;;;;;;6.95;63.88;94481.81;5105559;28;20027;-69
2022/04/10 07:39:38;;;;;;;49.97;47.30;;;;;;;7.10;63.31;94476.53;5105659;28;20032;-69
2022/04/10 07:42:03;;;;;;;3.38;2.45;;;;;;;7.24;62.84;94485.56;5105748;28;20031;-71
2022/04/10 07:44:29;;;;;;;4.47;2.72;;;;;;;7.33;62.63;94477.50;5105026;28;20030;-71
2022/04/10 07:49:38;;;;;;;24.20;22.98;;;;;;;7.54;60.87;94490.16;5105020;28;20504;-71
2022/04/10 07:52:04;;;;;;;2.97;2.67;;;;;;;7.59;61.22;94487.78;5105149;28;20028;-70
2022/04/10 07:54:29;;;;;;;3.85;2.70;;;;;;;7.60;61.33;94478.75;5105515;28;20065;-70
2022/04/10 07:56:54;;;;;;;6.38;5.45;;;;;;;7.61;61.45;94500.94;5105065;28;20402;-69
2022/04/10 07:59:20;;;;;;;4.45;2.08;;;;;;;7.45;61.07;94489.41;5105468;28;20490;-71
2022/04/10 08:01:45;;;;;;;3.38;2.10;;;;;;;7.41;61.65;94493.44;5103471;28;20020;-71
2022/04/10 08:04:11;;;;;;;2.55;2.30;;;;;;;7.51;61.05;94495.88;5105539;28;20404;-70
2022/04/10 08:06:36;;;;;;;2.75;2.03;;;;;;;7.48;60.35;94514.91;5104633;28;20543;-70
2022/04/10 08:09:02;;;;;;;2.30;1.85;;;;;;;7.32;60.31;94498.00;5105332;28;20401;-71
2022/04/10 08:11:27;;;;;;;2.60;2.08;;;;;;;7.33;60.03;94494.34;5104856;28;20028;-71
2022/04/10 08:13:53;;;;;;;2.58;2.35;;;;;;;7.16;59.62;94499.81;5105062;28;20035;-71
2022/04/10 08:16:19;;;;;;;2.58;1.90;;;;;;;7.09;60.98;94495.38;5105078;28;20032;-70
2022/04/10 08:18:44;;;;;;;3.17;1.80;;;;;;;7.02;60.99;94508.59;5103504;28;20027;-70
2022/04/10 08:21:10;;;;;;;2.80;1.80;;;;;;;6.93;61.00;94508.63;5105438;28;20028;-69
2022/04/10 08:23:35;;;;;;;2.30;1.90;;;;;;;6.96;60.91;94520.78;5104302;28;20375;-70
2022/04/10 08:26:01;;;;;;;3.13;1.95;;;;;;;6.80;61.76;94519.88;5105345;28;20031;-71
2022/04/10 08:28:27;;;;;;;2.45;2.00;;;;;;;6.72;62.15;94521.78;5104485;28;20421;-69
2022/04/10 08:30:52;;;;;;;2.80;2.22;;;;;;;6.74;62.18;94517.91;5104933;28;20081;-70
2022/04/10 08:33:18;;;;;;;6.97;2.20;;;;;;;6.73;61.60;94497.63;5105729;28;20047;-71
2022/04/10 08:35:43;;;;;;;7.85;2.75;;;;;;;6.52;62.64;94517.72;5108849;28;20020;-70
2022/04/10 08:38:08;;;;;;;3.15;2.95;;;;;;;6.52;62.86;94527.53;5109174;28;20032;-70
2022/04/10 08:40:34;;;;;;;3.70;3.25;;;;;;;6.35;63.37;94529.44;5108134;28;20028;-70
2022/04/10 08:43:00;;;;;;;2.70;2.10;;;;;;;6.24;63.52;94538.66;5108024;28;20478;-70
2022/04/10 08:45:26;;;;;;;3.28;2.97;;;;;;;6.16;64.21;94547.47;5107737;28;20048;-70
2022/04/10 08:47:52;;;;;;;4.28;3.63;;;;;;;6.13;64.48;94554.00;5108921;28;20055;-69
2022/04/10 08:50:18;;;;;;;11.10;10.43;;;;;;;5.93;65.24;94549.00;5090171;28;20024;-70
2022/04/10 08:52:43;;;;;;;2.70;2.50;;;;;;;5.78;66.07;94564.84;5108848;28;20388;-70
2022/04/10 08:55:09;;;;;;;3.72;2.70;;;;;;;5.72;66.13;94562.88;5107547;28;20409;-71
2022/04/10 08:57:35;;;;;;;3.63;3.33;;;;;;;5.47;66.92;94552.25;5108021;28;20028;-70
2022/04/10 09:00:00;;;;;;;3.00;2.72;;;;;;;5.35;67.45;94561.56;5109122;28;20016;-70
2022/04/10 09:02:26;;;;;;;3.53;3.22;;;;;;;5.34;67.52;94571.34;5107528;28;20024;-70
2022/04/10 09:04:51;;;;;;;4.57;4.28;;;;;;;5.26;67.01;94577.50;5108744;28;20103;-70
2022/04/10 09:07:16;;;;;;;4.35;4.05;;;;;;;5.26;66.95;94574.00;5107736;28;20036;-70
2022/04/10 09:09:48;;;;;;;4.07;3.78;;;;;;;5.15;67.20;94580.47;5108403;28;20028;-70
2022/04/10 09:12:14;;;;;;;3.38;2.63;;;;;;;5.04;67.70;94589.59;5107154;28;20038;-70
2022/04/10 09:14:41;;;;;;;86.43;82.35;;;;;;;5.07;67.15;94578.66;5107799;28;20024;-71
2022/04/10 09:17:29;;;;;;;2.90;2.70;;;;;;;4.90;68.02;94586.56;5107265;28;20053;-70
2022/04/10 09:19:55;;;;;;;3.30;3.10;;;;;;;4.89;68.42;94579.59;5106334;28;20451;-71
2022/04/10 09:22:30;;;;;;;3.72;3.42;;;;;;;4.85;67.77;94588.91;5090362;28;20020;-70
2022/04/10 09:25:15;;;;;;;3.08;2.35;;;;;;;4.75;67.97;94589.03;5107797;28;20096;-71
2022/04/10 09:27:44;;;;;;;3.45;3.15;;;;;;;4.78;67.56;94594.03;5106037;28;20407;-70
2022/04/10 09:30:14;;;;;;;2.20;2.00;;;;;;;4.81;68.46;94587.56;5108488;28;20029;-71
2022/04/10 09:32:43;;;;;;;3.97;3.63;;;;;;;4.71;68.32;94593.00;5105418;28;20075;-71
2022/04/10 09:35:11;;;;;;;4.80;4.40;;;;;;;4.81;68.57;94590.22;5089907;28;20046;-71
2022/04/10 09:37:48;;;;;;;2.83;2.63;;;;;;;4.82;67.70;94592.72;5107184;28;20102;-70
2022/04/10 09:40:33;;;;;;;3.78;2.25;;;;;;;4.73;68.06;94593.69;5107622;28;20121;-70
2022/04/10 09:43:10;;;;;;;2.60;2.40;;;;;;;4.82;67.76;94595.38;5108222;28;20030;-70
2022/04/10 09:45:43;;;;;;;3.13;2.92;;;;;;;4.71;68.21;94593.00;5106410;28;20077;-70
2022/04/10 09:48:29;;;;;;;3.65;3.38;;;;;;;4.80;68.97;94602.66;5106671;28;20020;-70
2022/04/10 09:51:01;;;;;;;3.53;3.33;;;;;;;4.85;68.04;94604.00;5107055;28;20114;-70
2022/04/10 09:53:27;;;;;;;3.28;3.05;;;;;;;4.67;68.22;94618.25;5107658;28;20027;-70
2022/04/10 09:55:54;;;;;;;3.72;3.28;;;;;;;4.52;69.05;94629.47;5106405;28;20023;-71
2022/04/10 09:58:20;;;;;;;2.75;2.35;;;;;;;4.45;68.61;94625.78;5106967;28;20504;-71
2022/04/10 10:00:46;;;;;;;3.00;2.55;;;;;;;4.30;69.42;94617.59;5107679;28;20024;-71
2022/04/10 10:03:12;;;;;;;4.80;4.50;;;;;;;4.29;69.41;94631.81;5105118;28;20088;-71
2022/04/10 10:05:37;;;;;;;2.50;2.00;;;;;;;4.24;69.14;94623.53;5105818;28;20027;-70
2022/04/10 10:08:06;;;;;;;2.65;2.45;;;;;;;4.10;70.64;94627.56;5088582;28;20027;-70
2022/04/10 10:10:36;;;;;;;4.05;3.33;;;;;;;4.07;70.94;94634.88;5107427;28;20043;-70
2022/04/10 10:13:08;;;;;;;2.10;1.80;;;;;;;3.96;71.14;94637.78;5105620;28;20031;-71
2022/04/10 10:15:37;;;;;;;2.05;1.83;;;;;;;4.03;70.54;94635.34;5106471;28;20115;-72
2022/04/10 10:18:06;;;;;;;2.85;2.65;;;;;;;3.99;71.28;94637.47;5107268;28;20061;-70
2022/04/10 10:20:32;;;;;;;2.00;1.80;;;;;;;3.95;70.98;94633.44;5105129;28;20562;-69
2022/04/10 10:23:02;;;;;;;3.38;3.05;;;;;;;3.87;70.11;94623.63;5106816;28;20020;-70
2022/04/10 10:25:39;;;;;;;3.90;3.55;;;;;;;3.90;71.04;94617.19;5105172;28;20024;-70
2022/04/10 10:28:07;;;;;;;4.28;2.47;;;;;;;3.93;71.41;94606.25;5105094;28;20100;-70
2022/04/10 10:30:51;;;;;;;3.85;3.45;;;;;;;4.05;71.56;94605.00;5106968;28;20031;-70
2022/04/10 10:33:21;;;;;;;4.40;3.85;;;;;;;4.06;70.85;94601.34;5105944;28;20047;-71
2022/04/10 10:35:59;;;;;;;4.15;3.25;;;;;;;4.13;70.29;94600.72;5105590;28;20022;-70
2022/04/10 10:38:26;;;;;;;5.05;3.35;;;;;;;4.25;71.08;94599.47;5105208;28;20028;-70
2022/04/10 10:41:12;;;;;;;4.65;3.58;;;;;;;4.12;70.08;94591.94;5104868;28;20026;-70
2022/04/10 10:43:37;;;;;;;7.15;3.40;;;;;;;4.19;70.31;94597.47;5092348;28;20032;-70
2022/04/10 10:46:03;;;;;;;3.10;2.45;;;;;;;4.27;70.04;94597.47;5105449;28;20027;-71
2022/04/10 10:48:31;;;;;;;3.42;2.88;;;;;;;4.33;70.33;94596.88;5088429;28;20432;-74
2022/04/10 10:51:20;;;;;;;3.03;2.25;;;;;;;4.41;70.30;94587.25;5105991;28;20027;-71
2022/04/10 10:53:51;;;;;;;2.65;1.90;;;;;;;4.42;69.13;94586.25;5095176;28;20402;-71
2022/04/10 10:56:20;;;;;;;2.65;1.90;;;;;;;4.39;69.68;94584.75;5104382;28;20032;-71
2022/04/10 10:58:48;;;;;;;3.88;2.10;;;;;;;4.42;70.40;94575.63;5106009;28;20025;-70
2022/04/10 11:01:23;;;;;;;5.50;5.03;;;;;;;4.50;70.10;94580.97;5105386;28;20461;-71
2022/04/10 11:04:01;;;;;;;3.10;2.40;;;;;;;4.43;69.99;94580.78;5104220;28;20028;-70
2022/04/10 11:06:31;;;;;;;3.90;2.53;;;;;;;4.47;69.37;94583.13;5106193;28;20016;-70
2022/04/10 11:09:28;;;;;;;2.95;2.33;;;;;;;4.37;70.64;94580.63;5105977;28;20722;-70
2022/04/10 11:11:55;;;;;;;3.63;2.42;;;;;;;4.47;70.60;94570.69;5103875;28;20466;-71
2022/04/10 11:14:40;;;;;;;2.55;1.95;;;;;;;4.47;69.45;94564.53;5104824;28;20119;-70
2022/04/10 11:17:20;;;;;;;2.42;2.20;;;;;;;4.37;70.32;94559.38;5105336;28;20057;-69
2022/04/10 11:19:49;;;;;;;3.72;2.47;;;;;;;4.30;70.72;94560.03;5105914;27;20028;-71
2022/04/10 11:22:19;;;;;;;3.30;2.88;;;;;;;4.33;71.02;94565.00;5104496;28;20102;-69
2022/04/10 11:24:54;;;;;;;3.28;2.60;;;;;;;4.36;70.70;94573.63;5105381;28;20094;-70
2022/04/10 11:27:47;;;;;;;3.67;2.88;;;;;;;4.38;71.54;94579.63;5087543;28;20042;-70
2022/04/10 11:30:19;;;;;;;3.28;2.63;;;;;;;4.45;70.78;94588.59;5105180;28;20040;-70
2022/04/10 11:32:54;;;;;;;4.57;3.15;;;;;;;4.53;70.08;94580.66;5105185;28;20058;-70
2022/04/10 11:35:29;;;;;;;4.70;2.83;;;;;;;4.66;67.71;94572.25;5104338;28;20613;-70
2022/04/10 11:37:58;;;;;;;3.97;3.13;;;;;;;4.81;66.94;94572.47;5103786;28;20058;-74
2022/04/10 11:40:26;;;;;;;4.90;3.30;;;;;;;4.89;67.11;94562.81;5105809;28;20426;-70